Terminal Aerodrome Forecast
Issued by NWS Mt. Holly, NJ

Home | Current Version | Previous Version | Text Only | Print | Product List | Glossary On
Versions: 1 2 3 4 5 6 7 8 9 10 11 12 13 14 15 16 17
341
FTUS41 KPHI 291720
TAFTTN
TAF
KTTN 291720Z 2918/3018 33007KT P6SM FEW040
     FM300000 02004KT P6SM FEW200
     FM301500 20005KT P6SM SCT050=

USA.gov is the U.S. government's official web portal to all federal, state and local government web resources and services.